createdAt,value
2023-03-23T16:03:16.682Z,15.49
2023-03-23T16:13:38.136Z,15.46
2023-03-23T16:23:59.510Z,15.31
2023-03-23T16:34:21.005Z,15.30
2023-03-23T16:44:42.428Z,15.13
2023-03-23T16:55:04.319Z,14.97
2023-03-23T17:05:26.709Z,14.71
2023-03-23T17:15:52.442Z,14.35
2023-03-23T17:26:14.200Z,14.13
2023-03-23T17:36:35.695Z,13.91
2023-03-23T17:46:57.248Z,13.82
2023-03-23T17:57:18.637Z,13.79
2023-03-23T18:07:40.197Z,13.64
2023-03-23T18:18:03.585Z,13.53
2023-03-23T18:28:25.371Z,13.49
2023-03-23T18:38:47.197Z,13.43
2023-03-23T18:49:08.583Z,13.41
2023-03-23T18:59:34.524Z,13.28
2023-03-23T19:09:56.343Z,13.26
2023-03-23T19:20:37.275Z,13.10
2023-03-23T19:30:59.292Z,13.07
2023-03-23T19:41:21.792Z,12.94
2023-03-23T19:51:43.350Z,12.87
2023-03-23T20:02:04.908Z,12.85
2023-03-23T20:12:26.387Z,12.88
2023-03-23T20:22:49.978Z,12.93
2023-03-23T20:33:12.455Z,13.06
2023-03-23T20:43:33.879Z,12.97
2023-03-23T20:53:55.601Z,12.94
2023-03-23T21:04:22.796Z,12.96
2023-03-23T21:14:45.019Z,12.99
2023-03-23T21:25:07.145Z,12.98
2023-03-23T21:35:28.586Z,12.98
2023-03-23T21:45:49.998Z,12.86
2023-03-23T21:56:11.519Z,12.84
2023-03-23T22:06:34.431Z,12.81
2023-03-23T22:16:55.938Z,12.81
2023-03-23T22:27:17.357Z,12.80
2023-03-23T22:37:38.865Z,12.82
2023-03-23T22:48:00.438Z,12.82
2023-03-23T22:58:22.253Z,12.77
2023-03-23T23:08:45.552Z,12.70
2023-03-23T23:19:07.321Z,12.64
2023-03-23T23:29:28.789Z,12.58
2023-03-23T23:39:50.385Z,12.53
2023-03-23T23:50:12.748Z,12.44
